Roslindale, MA

4:34 AM EDT on April 18, 2015 (GMT -0400)
Roslindale (Rosecliff) | | Change Station
CLOSE
Current Station
Personal Weather Station
Location: Roslindale, MA
Elevation: 157 ft
Nearby Weather Stations

Elev 157 ft 42.28 °N, 71.13 °W | Updated 13 seconds ago

Partly Cloudy
Partly Cloudy
47.5 °F
Feels Like 48 °F
N
0.0
Wind Variable Wind from South
Gusts 0.0 mph

Today
High -- | Low -- °F
--% Chance of Precip.
Yesterday
High -- | Low -- °F
Precip. -- in
5:59 AM 7:29 PM
Waning Crescent, 0% visible
Pressure 29.91 in
Visibility 1.8 miles
Clouds Scattered Clouds 200 ft
Windchill 48 °F
Dew Point 46 °F
Humidity 93%
Rainfall 0.00 in
Snow Depth Not available.
UV 0.0 out of 12
Pollen 7.70 out of 12
Air Quality Not available.
Flu Activity Widespread
SPECI KOWD 180831Z AUTO 00000KT 1 3/4SM BR SCT002 04/04 A2991 RMK AO2 VIS 3/4V5 T00390039

More Conditions Fewer Conditions

Pressure 29.91 in
Visibility 1.8 miles
Clouds Scattered Clouds 200 ft
Windchill 48 °F
Dew Point 46 °F
Humidity 93%
Rainfall 0.00 in
Snow Depth Not available.
UV 0.0 out of 12
Pollen 7.70 out of 12
Air Quality Not available.
Flu Activity Widespread
SPECI KOWD 180831Z AUTO 00000KT 1 3/4SM BR SCT002 04/04 A2991 RMK AO2 VIS 3/4V5 T00390039

More Conditions Fewer Conditions

10-Day Weather Forecast

Almanac

Astronomy

Apr. 18, 2015 Rise Set
Actual Time
Civil Twilight
Nautical Twilight
Astronomical Twilight
Moon
Length of Visible Light
Length of Day
Tomorrow will be .
, % of the Moon is Illuminated

Today's Extremes

State Highs State Lows

Community

WunderPhotos

Upload Photos

1,814,345 photos uploaded!

WunderBlogs® & News

Nearby

Air Quality

  Air Quality AQ Index Pollutant
Not available.

Snow Depth

Station Depth Elevation

Earthquake Activity

City Distance Mag. Time & Date
Minimum magnitude displayed is 2.5.

Coastal Water Temperatures

Place Temperature

Stations

Nearby Weather Stations

Station Location Temp. Windchill Dew Point Humidity Wind Precip. Elev Updated Type